Weather at New England Memorial Hospital Heliport

Public forecast

Using degrees Fahrenheit for public forecast. Weather courtesy of forecast.io.

Closest aviation weather report (METAR) to New England Memorial Hospital Heliport

Report is more than 6 hours old.

Closest report is Logan International Airport, 6.4 nm (11.8 km) SE.

2022/11/14 13:54 (retrieved 2 years ago)

KBOS 141354Z 31012G22KT 10SM FEW045 FEW250 04/M06 A3020 RMK AO2 SLP227 T00391056

Closest aviation forecast (TAF) to New England Memorial Hospital Heliport

Forecast is more than 12 hours old.

Closest forecast is Logan International Airport, 6.4 nm (11.8 km) SE.

2023/02/22 18:45 (retrieved 1 year ago)

TAF KBOS 221738Z 2218/2324 27007KT P6SM OVC200 FM230200 13004KT 2SM -SN BR OVC008 FM230600 09009KT 2SM -PL BR OVC003 FM231100 07012KT 1SM -RAPL BR OVC008 FM231700 04014G18KT 2SM -SN OVC010 FM232100 05010KT 6SM BR VCSH OVC010